Time;durP1;ratioP1;P1;durP2;ratioP2;P2;SDS_P1;SDS_P2;PMS_P1;PMS_P2;Temp;Humidity;BMP_temperature;BMP_pressure;BME280_temperature;BME280_humidity;BME280_pressure;Samples;Min_cycle;Max_cycle;Signal;HPM_P1;HPM_P2
2023/01/10 00:03:19;;;;;;;8.93;4.00;;;0.10;59.40;;;;;;5062843;27;20931;-54
2023/01/10 00:05:44;;;;;;;4.53;3.72;;;0.10;60.00;;;;;;5052852;28;20033;-54
2023/01/10 00:08:14;;;;;;;6.38;3.60;;;0.10;60.20;;;;;;5052998;28;20037;-54
2023/01/10 00:10:40;;;;;;;4.60;3.45;;;0.10;60.30;;;;;;5054273;28;20471;-57
2023/01/10 00:13:24;;;;;;;6.25;4.00;;;0.00;60.30;;;;;;5047416;28;20033;-55
2023/01/10 00:15:52;;;;;;;6.20;4.15;;;0.00;60.60;;;;;;5047011;28;20399;-55
2023/01/10 00:18:18;;;;;;;6.05;3.90;;;0.00;60.90;;;;;;5047882;28;20095;-55
2023/01/10 00:20:44;;;;;;;7.10;3.95;;;-0.10;61.00;;;;;;5054597;28;20049;-58
2023/01/10 00:23:11;;;;;;;3.75;3.17;;;-0.10;61.20;;;;;;5047198;28;20201;-50
2023/01/10 00:25:37;;;;;;;8.90;3.90;;;-0.20;61.10;;;;;;5040716;28;20035;-57
2023/01/10 00:31:05;;;;;;;5.70;3.65;;;-0.30;61.60;;;;;;5047226;28;20164;-58
2023/01/10 00:33:32;;;;;;;7.65;3.90;;;-0.30;61.60;;;;;;5041592;28;20037;-58
2023/01/10 00:35:59;;;;;;;6.38;4.20;;;-0.30;61.70;;;;;;5046267;28;20072;-54
2023/01/10 00:38:25;;;;;;;5.45;3.95;;;-0.30;61.70;;;;;;5045601;28;20025;-53
2023/01/10 00:40:51;;;;;;;7.25;3.92;;;-0.30;62.00;;;;;;5050650;28;20037;-54
2023/01/10 00:46:01;;;;;;;5.72;3.88;;;-0.40;62.20;;;;;;5056122;28;20090;-54
2023/01/10 00:48:27;;;;;;;9.43;4.45;;;-0.50;62.40;;;;;;5049840;28;20499;-51
2023/01/10 00:50:53;;;;;;;6.40;4.13;;;-0.60;62.60;;;;;;5049761;28;20493;-52
2023/01/10 00:53:19;;;;;;;7.43;4.50;;;-0.70;62.70;;;;;;5045855;28;20028;-52
2023/01/10 00:55:44;;;;;;;7.25;4.30;;;-0.70;63.00;;;;;;5057825;28;20064;-56
2023/01/10 00:58:11;;;;;;;8.40;4.65;;;-0.70;63.20;;;;;;5055739;28;20115;-53
2023/01/10 01:00:37;;;;;;;8.38;4.40;;;-0.70;63.30;;;;;;5051366;28;20056;-63
2023/01/10 01:03:04;;;;;;;7.15;4.40;;;-0.70;63.30;;;;;;5049674;28;20096;-63
2023/01/10 01:05:30;;;;;;;7.20;4.00;;;-0.70;63.50;;;;;;5046829;28;20520;-63
2023/01/10 01:07:56;;;;;;;5.32;3.90;;;-0.70;63.40;;;;;;5052146;28;20068;-62
2023/01/10 01:10:25;;;;;;;6.22;4.10;;;-0.70;63.50;;;;;;5054356;28;20118;-63
2023/01/10 01:12:51;;;;;;;5.90;4.35;;;-0.80;63.50;;;;;;5044448;28;20057;-63
2023/01/10 01:15:17;;;;;;;9.10;5.03;;;-0.80;63.50;;;;;;5033888;28;20061;-63
2023/01/10 01:17:42;;;;;;;7.80;4.25;;;-0.80;63.60;;;;;;5033032;28;20481;-62
2023/01/10 01:20:09;;;;;;;5.93;4.00;;;-0.90;63.80;;;;;;5044425;28;20036;-62
2023/01/10 01:22:35;;;;;;;7.60;4.72;;;-1.00;64.00;;;;;;5033667;28;20025;-60
2023/01/10 01:25:00;;;;;;;12.07;4.47;;;-1.00;64.30;;;;;;5032970;28;20041;-64
2023/01/10 01:27:26;;;;;;;7.40;4.85;;;-1.00;64.50;;;;;;5036570;28;20061;-62
2023/01/10 01:29:52;;;;;;;9.65;4.40;;;-1.10;64.50;;;;;;5040059;28;20379;-63
2023/01/10 01:32:17;;;;;;;6.55;4.40;;;-1.20;64.40;;;;;;5037981;28;20037;-63
2023/01/10 01:34:43;;;;;;;6.53;4.70;;;-1.20;64.40;;;;;;5032187;28;20098;-63
2023/01/10 01:37:09;;;;;;;6.32;4.05;;;-1.20;64.30;;;;;;5033282;28;20030;-62
2023/01/10 01:39:34;;;;;;;8.35;4.75;;;-1.30;64.10;;;;;;5032813;28;20029;-62
2023/01/10 01:42:01;;;;;;;8.15;4.70;;;-1.30;64.20;;;;;;5029767;28;20479;-62
2023/01/10 01:44:41;;;;;;;10.77;4.93;;;-1.40;64.20;;;;;;5038055;28;20353;-62
2023/01/10 01:47:16;;;;;;;8.32;4.75;;;-1.40;64.30;;;;;;5040067;28;20053;-63
2023/01/10 01:49:43;;;;;;;8.73;4.80;;;-1.60;64.60;;;;;;5037705;28;20073;-63
2023/01/10 01:52:24;;;;;;;6.85;4.60;;;-1.70;64.70;;;;;;5032553;28;20064;-62
2023/01/10 01:54:52;;;;;;;7.68;4.47;;;-1.80;65.00;;;;;;5033689;28;20083;-62
2023/01/10 01:57:22;;;;;;;6.15;4.57;;;-1.80;65.20;;;;;;5043553;28;20574;-62
2023/01/10 01:59:51;;;;;;;7.07;4.57;;;-1.90;65.30;;;;;;5034529;28;20124;-62
2023/01/10 02:02:21;;;;;;;9.15;5.35;;;-2.00;65.30;;;;;;5036671;28;20060;-62
2023/01/10 02:04:55;;;;;;;10.38;5.45;;;-2.00;65.40;;;;;;5033711;28;20112;-63
2023/01/10 02:07:22;;;;;;;7.35;5.18;;;-2.10;65.30;;;;;;5031505;28;20025;-62
2023/01/10 02:09:54;;;;;;;8.23;5.28;;;-2.20;65.40;;;;;;5038959;28;20029;-62
2023/01/10 02:12:20;;;;;;;;;;;-2.20;65.60;;;;;;5037836;28;20489;-62
2023/01/10 02:14:49;;;;;;;7.50;5.30;;;-2.30;65.50;;;;;;5031567;28;19916;-62
2023/01/10 02:17:14;;;;;;;8.32;4.97;;;-2.30;65.70;;;;;;5038500;28;20120;-62
2023/01/10 02:19:49;;;;;;;6.38;4.63;;;-2.30;65.70;;;;;;5034563;28;20556;-62
2023/01/10 02:22:20;;;;;;;8.80;5.43;;;-2.30;65.90;;;;;;5032872;28;20033;-57
2023/01/10 02:25:10;;;;;;;7.97;5.38;;;-2.30;65.80;;;;;;5035223;28;20025;-57
2023/01/10 02:27:39;;;;;;;9.27;5.53;;;-2.30;65.80;;;;;;5034197;28;20018;-57
2023/01/10 02:30:14;;;;;;;8.43;5.00;;;-2.30;65.90;;;;;;5031774;28;20033;-58
2023/01/10 02:32:49;;;;;;;6.60;5.22;;;-2.30;65.70;;;;;;5024626;28;20080;-53
2023/01/10 02:35:32;;;;;;;9.18;5.47;;;-2.40;65.60;;;;;;5025899;28;20396;-55
2023/01/10 02:38:12;;;;;;;10.10;6.40;;;-2.40;65.80;;;;;;5031083;28;20037;-56
2023/01/10 02:40:59;;;;;;;8.57;4.80;;;-2.50;65.80;;;;;;5030203;28;20033;-55
2023/01/10 02:43:36;;;;;;;9.10;5.38;;;-2.50;66.50;;;;;;5031329;28;20034;-56
2023/01/10 02:46:14;;;;;;;9.57;6.28;;;-2.60;65.90;;;;;;5038292;28;20121;-57
2023/01/10 02:48:40;;;;;;;12.85;6.82;;;-2.60;66.00;;;;;;5029182;28;20035;-53
2023/01/10 02:51:23;;;;;;;8.73;5.35;;;-2.70;65.70;;;;;;5030338;28;20037;-57
2023/01/10 02:54:07;;;;;;;10.98;6.28;;;-2.70;65.40;;;;;;5038888;28;20067;-55
2023/01/10 02:56:52;;;;;;;9.80;5.97;;;-2.80;65.50;;;;;;5034735;28;20032;-56
2023/01/10 02:59:50;;;;;;;9.80;6.35;;;-2.90;66.20;;;;;;5032070;28;20083;-56
2023/01/10 03:02:53;;;;;;;9.38;6.05;;;-3.00;65.60;;;;;;5034702;28;20159;-58
2023/01/10 03:05:29;;;;;;;7.13;5.75;;;-3.00;65.80;;;;;;5032001;28;20059;-54
2023/01/10 03:08:13;;;;;;;9.73;5.97;;;-3.00;66.00;;;;;;5027173;28;20030;-58
2023/01/10 03:10:51;;;;;;;9.00;5.90;;;-3.00;65.70;;;;;;5032431;28;20109;-58
2023/01/10 03:13:43;;;;;;;9.05;6.50;;;-3.10;65.70;;;;;;5033375;28;20063;-57
2023/01/10 03:16:12;;;;;;;;;;;-3.10;65.70;;;;;;5030134;28;20067;-57
2023/01/10 03:18:45;;;;;;;8.60;5.70;;;-3.10;66.10;;;;;;5036808;28;20336;-58
2023/01/10 03:21:11;;;;;;;9.02;6.15;;;-3.20;65.80;;;;;;5028063;28;20029;-57
2023/01/10 03:23:39;;;;;;;10.25;6.25;;;-3.20;65.80;;;;;;5037355;28;20467;-59
2023/01/10 03:26:06;;;;;;;16.13;6.47;;;-3.20;65.80;;;;;;5028919;28;20448;-58
2023/01/10 03:28:49;;;;;;;8.13;5.65;;;-3.20;65.70;;;;;;5030305;28;20380;-57
2023/01/10 03:31:27;;;;;;;8.18;5.70;;;-3.10;65.70;;;;;;5025385;28;20509;-57
2023/01/10 03:33:53;;;;;;;7.35;5.47;;;-3.10;65.70;;;;;;5028982;28;20029;-57
2023/01/10 03:36:37;;;;;;;6.95;5.55;;;-3.10;65.70;;;;;;5032820;28;20029;-57
2023/01/10 03:39:41;;;;;;;8.88;6.40;;;-3.10;65.70;;;;;;5026939;28;20053;-57
2023/01/10 03:42:18;;;;;;;10.77;5.93;;;-3.10;65.60;;;;;;5032898;28;20478;-57
2023/01/10 03:44:59;;;;;;;9.80;6.05;;;-3.00;65.50;;;;;;5027626;28;20046;-57
2023/01/10 03:47:29;;;;;;;9.75;6.15;;;-3.00;65.50;;;;;;5052123;28;20037;-58
2023/01/10 03:50:21;;;;;;;11.10;6.13;;;-3.10;65.50;;;;;;5032832;28;20029;-58
2023/01/10 03:52:46;;;;;;;9.15;5.95;;;-3.10;65.60;;;;;;5033136;28;20332;-58
2023/01/10 03:55:16;;;;;;;7.05;4.97;;;-3.20;65.50;;;;;;5030616;28;20044;-58
2023/01/10 03:57:44;;;;;;;9.63;5.78;;;-3.20;65.70;;;;;;5028263;28;20403;-57
2023/01/10 04:00:11;;;;;;;9.23;5.90;;;-3.20;65.40;;;;;;5033009;28;20030;-59
2023/01/10 04:02:37;;;;;;;6.95;5.43;;;-3.20;65.40;;;;;;5029280;28;20535;-54
2023/01/10 04:05:03;;;;;;;7.55;5.65;;;-3.20;65.40;;;;;;5036310;28;20112;-55
2023/01/10 04:07:29;;;;;;;8.85;5.88;;;-3.20;65.50;;;;;;5029863;28;20036;-53
2023/01/10 04:09:54;;;;;;;8.93;5.65;;;-3.20;65.40;;;;;;5033266;28;20025;-56
2023/01/10 04:12:20;;;;;;;7.53;5.70;;;-3.20;65.10;;;;;;5030364;28;20064;-54
2023/01/10 04:14:46;;;;;;;8.30;5.80;;;-3.30;65.00;;;;;;5030427;28;20040;-58
2023/01/10 04:17:13;;;;;;;6.70;5.07;;;-3.30;65.00;;;;;;5028302;28;20036;-52
2023/01/10 04:19:38;;;;;;;10.93;5.63;;;-3.30;64.80;;;;;;5038986;28;20033;-54
2023/01/10 04:22:07;;;;;;;9.77;5.38;;;-3.30;64.70;;;;;;5030605;28;20087;-61
2023/01/10 04:24:33;;;;;;;8.65;5.80;;;-3.30;64.70;;;;;;5030796;28;20029;-67
2023/01/10 04:26:59;;;;;;;10.18;5.68;;;-3.40;64.30;;;;;;5028367;28;20033;-68
2023/01/10 04:29:25;;;;;;;9.73;5.60;;;-3.40;64.40;;;;;;5030812;28;20028;-68
2023/01/10 04:31:51;;;;;;;8.57;5.53;;;-3.40;64.50;;;;;;5033333;28;20025;-58
2023/01/10 04:34:19;;;;;;;9.00;5.68;;;-3.40;64.40;;;;;;5032056;28;20151;-59
2023/01/10 04:36:45;;;;;;;7.68;4.97;;;-3.40;64.30;;;;;;5036485;28;20021;-59
2023/01/10 04:39:10;;;;;;;9.10;5.45;;;-3.40;64.40;;;;;;5037821;28;20030;-59
2023/01/10 04:41:36;;;;;;;9.27;5.40;;;-3.40;64.50;;;;;;5029154;28;20029;-60
2023/01/10 04:44:02;;;;;;;8.23;5.38;;;-3.40;64.50;;;;;;5027417;28;20032;-58
2023/01/10 04:46:28;;;;;;;6.25;4.70;;;-3.40;64.50;;;;;;5029191;28;20048;-59
2023/01/10 04:48:54;;;;;;;6.82;5.00;;;-3.40;65.20;;;;;;5023607;28;20033;-59
2023/01/10 04:51:20;;;;;;;8.80;5.32;;;-3.40;64.50;;;;;;5033309;28;20041;-59
2023/01/10 04:53:45;;;;;;;9.10;5.38;;;-3.40;64.20;;;;;;5036716;28;20032;-58
2023/01/10 04:56:16;;;;;;;9.65;5.47;;;-3.40;64.20;;;;;;5034477;28;20021;-57
2023/01/10 04:58:42;;;;;;;8.02;5.35;;;-3.40;64.30;;;;;;5032953;28;20025;-59
2023/01/10 05:01:13;;;;;;;9.73;4.78;;;-3.30;64.50;;;;;;5033289;28;20044;-52
2023/01/10 05:03:39;;;;;;;8.43;5.40;;;-3.30;64.50;;;;;;5033850;28;20029;-52
2023/01/10 05:06:06;;;;;;;9.93;5.75;;;-3.30;64.80;;;;;;5032118;28;20041;-63
2023/01/10 05:08:32;;;;;;;8.25;5.72;;;-3.30;65.50;;;;;;5030460;28;20036;-58
2023/01/10 05:10:58;;;;;;;10.82;6.20;;;-3.20;65.00;;;;;;5031829;28;20134;-63
2023/01/10 05:13:24;;;;;;;10.30;5.75;;;-3.20;65.20;;;;;;5031657;28;20029;-62
2023/01/10 05:15:54;;;;;;;9.50;6.20;;;-3.20;65.40;;;;;;5027662;28;20044;-55
2023/01/10 05:18:19;;;;;;;13.73;7.07;;;-3.20;65.20;;;;;;5029875;28;20034;-53
2023/01/10 05:20:45;;;;;;;11.63;7.22;;;-3.20;65.10;;;;;;5034943;28;20060;-52
2023/01/10 05:23:11;;;;;;;11.70;7.13;;;-3.20;65.00;;;;;;5028207;28;20476;-54
2023/01/10 05:25:36;;;;;;;10.55;7.20;;;-3.30;65.30;;;;;;5022002;28;20033;-54
2023/01/10 05:28:02;;;;;;;13.30;6.97;;;-3.30;65.40;;;;;;5029727;28;20025;-59
2023/01/10 05:30:27;;;;;;;11.05;6.60;;;-3.30;65.20;;;;;;5031598;28;20120;-56
2023/01/10 05:32:53;;;;;;;11.35;6.72;;;-3.30;65.20;;;;;;5028300;28;20064;-58
2023/01/10 05:35:19;;;;;;;11.55;7.13;;;-3.30;65.20;;;;;;5036333;28;20040;-53
2023/01/10 05:37:44;;;;;;;11.20;6.93;;;-3.40;64.90;;;;;;5037656;28;20021;-57
2023/01/10 05:40:10;;;;;;;10.77;6.80;;;-3.40;65.20;;;;;;5036783;28;20025;-56
2023/01/10 05:42:36;;;;;;;10.35;6.20;;;-3.50;65.20;;;;;;5034710;28;20038;-57
2023/01/10 05:45:02;;;;;;;12.52;6.40;;;-3.50;65.50;;;;;;5040067;28;20044;-56
2023/01/10 05:47:28;;;;;;;10.77;6.70;;;-3.50;65.50;;;;;;5034271;28;20571;-62
2023/01/10 05:49:53;;;;;;;11.75;6.70;;;-3.60;65.70;;;;;;5025247;28;20080;-63
2023/01/10 05:52:19;;;;;;;9.90;6.38;;;-3.60;65.90;;;;;;5025294;28;20115;-62
2023/01/10 05:54:45;;;;;;;16.10;7.28;;;-3.60;66.10;;;;;;5027928;28;20364;-62
2023/01/10 05:57:10;;;;;;;9.00;6.40;;;-3.60;66.40;;;;;;5031811;28;20053;-63
2023/01/10 05:59:36;;;;;;;10.60;6.60;;;-3.60;65.80;;;;;;5034099;28;20029;-62
2023/01/10 06:02:01;;;;;;;10.50;6.63;;;-3.70;65.90;;;;;;5026485;28;20049;-63
2023/01/10 06:04:27;;;;;;;11.90;6.85;;;-3.70;66.00;;;;;;5031320;28;20025;-61
2023/01/10 06:06:52;;;;;;;14.07;6.72;;;-3.70;65.80;;;;;;5033355;28;20033;-61
2023/01/10 06:09:18;;;;;;;10.90;6.13;;;-3.70;66.00;;;;;;5030706;28;20137;-64
2023/01/10 06:11:44;;;;;;;11.68;6.05;;;-3.70;66.30;;;;;;5029905;28;20848;-62
2023/01/10 06:14:09;;;;;;;14.02;6.28;;;-3.70;65.80;;;;;;5033998;28;20053;-62
2023/01/10 06:16:35;;;;;;;12.00;6.25;;;-3.70;66.10;;;;;;5033507;28;20032;-64
2023/01/10 06:19:01;;;;;;;8.20;5.80;;;-3.70;66.20;;;;;;5025811;28;20068;-61
2023/01/10 06:21:26;;;;;;;7.55;5.55;;;-3.70;65.90;;;;;;5028129;28;20036;-63
2023/01/10 06:23:52;;;;;;;9.38;6.38;;;-3.70;66.30;;;;;;5024819;28;20036;-63
2023/01/10 06:26:18;;;;;;;8.80;6.00;;;-3.70;65.60;;;;;;5030838;28;20531;-62
2023/01/10 06:28:44;;;;;;;8.32;5.63;;;-3.70;65.60;;;;;;5021354;28;20052;-64
2023/01/10 06:31:09;;;;;;;14.60;6.50;;;-3.60;65.80;;;;;;5018712;28;20579;-62
2023/01/10 06:33:35;;;;;;;9.63;5.80;;;-3.70;65.40;;;;;;5021711;28;20025;-63
2023/01/10 06:36:01;;;;;;;11.32;5.95;;;-3.60;65.50;;;;;;5018548;28;20064;-63
2023/01/10 06:38:26;;;;;;;9.30;5.97;;;-3.60;65.50;;;;;;5015893;28;20462;-63
2023/01/10 06:40:52;;;;;;;10.85;5.70;;;-3.50;65.70;;;;;;5029400;28;20368;-63
2023/01/10 06:43:18;;;;;;;12.07;5.95;;;-3.50;65.60;;;;;;5015091;28;20095;-65
2023/01/10 06:45:43;;;;;;;8.95;5.65;;;-3.50;65.50;;;;;;5017364;28;20791;-63
2023/01/10 06:48:09;;;;;;;15.27;6.05;;;-3.40;65.50;;;;;;5023042;28;20120;-63
2023/01/10 06:50:34;;;;;;;10.60;6.57;;;-3.40;65.50;;;;;;5018351;28;20434;-54
2023/01/10 06:53:03;;;;;;;9.15;6.15;;;-3.40;65.20;;;;;;5018316;28;20041;-53
2023/01/10 06:55:29;;;;;;;9.38;5.80;;;-3.40;65.30;;;;;;5018357;28;20037;-52
2023/01/10 06:58:00;;;;;;;9.07;5.70;;;-3.40;65.50;;;;;;5019509;28;20464;-55
2023/01/10 07:00:27;;;;;;;11.80;5.97;;;-3.30;65.60;;;;;;4998366;28;20035;-51
2023/01/10 07:03:51;;;;;;;9.05;5.35;;;-3.30;64.90;;;;;;5043305;28;20500;-55
2023/01/10 07:06:17;;;;;;;13.35;5.88;;;-3.30;65.20;;;;;;5031564;28;20112;-64
2023/01/10 07:09:30;;;;;;;9.02;5.72;;;-3.30;64.70;;;;;;5067085;27;1386388;-69
2023/01/10 07:11:56;;;;;;;8.32;6.03;;;-3.30;65.00;;;;;;5098258;27;20020;-66
2023/01/10 07:14:22;;;;;;;8.63;5.47;;;-3.30;65.20;;;;;;5102073;28;20055;-64
2023/01/10 07:16:48;;;;;;;7.90;5.50;;;-3.20;65.80;;;;;;5102835;28;20023;-64
2023/01/10 07:19:16;;;;;;;13.32;6.15;;;-3.20;65.60;;;;;;5104923;28;20425;-67
2023/01/10 07:21:42;;;;;;;7.28;5.32;;;-3.20;65.40;;;;;;5098741;27;20304;-64
2023/01/10 07:24:08;;;;;;;11.88;5.75;;;-3.20;65.50;;;;;;5109949;28;21194;-57
2023/01/10 07:26:35;;;;;;;14.93;5.43;;;-3.20;65.50;;;;;;5101998;28;20036;-58
2023/01/10 07:29:00;;;;;;;10.15;5.00;;;-3.20;65.70;;;;;;5098594;28;20061;-62
2023/01/10 07:31:26;;;;;;;8.63;5.50;;;-3.10;65.60;;;;;;5098158;28;20032;-59
2023/01/10 07:33:52;;;;;;;12.80;5.22;;;-3.10;65.70;;;;;;5087455;28;20034;-57
2023/01/10 07:36:18;;;;;;;7.88;4.88;;;-3.00;65.50;;;;;;5096803;28;20039;-60
2023/01/10 07:38:43;;;;;;;6.85;5.32;;;-3.00;65.10;;;;;;5090086;27;20046;-58
2023/01/10 07:41:09;;;;;;;9.60;5.70;;;-2.90;65.30;;;;;;5095610;28;20026;-60
2023/01/10 07:43:35;;;;;;;9.43;5.13;;;-2.90;65.30;;;;;;5090648;28;20036;-58
2023/01/10 07:46:06;;;;;;;9.10;5.13;;;-2.80;65.20;;;;;;5096100;27;20039;-59
2023/01/10 07:48:32;;;;;;;9.65;5.63;;;-2.80;65.10;;;;;;5092450;28;20035;-59
2023/01/10 07:50:59;;;;;;;10.50;5.28;;;-2.80;65.00;;;;;;5099929;28;20092;-51
2023/01/10 07:53:26;;;;;;;8.43;5.20;;;-2.70;65.00;;;;;;5085938;28;20436;-54
2023/01/10 07:55:52;;;;;;;9.82;5.10;;;-2.70;64.90;;;;;;5093157;28;20031;-48
2023/01/10 07:58:18;;;;;;;7.40;4.53;;;-2.70;65.00;;;;;;5092012;27;20042;-57
2023/01/10 08:00:45;;;;;;;7.47;4.45;;;-2.70;65.10;;;;;;5092349;28;20053;-54
2023/01/10 08:03:11;;;;;;;8.60;4.93;;;-2.60;64.90;;;;;;5084818;27;20039;-52
2023/01/10 08:05:38;;;;;;;8.98;4.90;;;-2.60;65.00;;;;;;5091701;28;20031;-54
2023/01/10 08:08:08;;;;;;;9.55;4.38;;;-2.50;65.00;;;;;;5090993;27;20764;-56
2023/01/10 08:10:35;;;;;;;5.75;3.70;;;-2.50;64.60;;;;;;5101494;28;20023;-55
2023/01/10 08:13:01;;;;;;;8.35;4.30;;;-2.40;64.40;;;;;;5089414;28;20036;-55
2023/01/10 08:15:26;;;;;;;6.43;4.35;;;-2.30;63.90;;;;;;5096014;28;20085;-55
2023/01/10 08:17:52;;;;;;;7.13;4.20;;;-2.30;63.60;;;;;;5086142;28;20078;-56
2023/01/10 08:20:18;;;;;;;5.47;3.97;;;-2.20;63.40;;;;;;5086425;28;20031;-55
2023/01/10 08:22:44;;;;;;;7.82;4.32;;;-2.20;62.70;;;;;;5080733;28;20028;-58
2023/01/10 08:25:09;;;;;;;7.57;4.55;;;-2.20;62.20;;;;;;5073983;28;20039;-55
2023/01/10 08:27:35;;;;;;;7.68;4.40;;;-2.10;62.40;;;;;;5072699;28;20035;-56
2023/01/10 08:30:01;;;;;;;5.85;4.35;;;-2.10;62.50;;;;;;5066961;28;20392;-60
2023/01/10 08:32:27;;;;;;;6.43;4.60;;;-2.10;62.30;;;;;;5068754;28;20043;-61
2023/01/10 08:34:53;;;;;;;6.10;4.63;;;-2.10;62.30;;;;;;5063687;28;20027;-60
2023/01/10 08:37:18;;;;;;;6.40;4.53;;;-2.00;62.30;;;;;;5059430;28;20028;-59
2023/01/10 08:39:44;;;;;;;6.32;4.05;;;-2.00;61.90;;;;;;5070398;28;20525;-60
2023/01/10 08:42:10;;;;;;;7.00;4.28;;;-2.00;61.40;;;;;;5068672;28;20036;-58
2023/01/10 08:44:35;;;;;;;10.35;4.65;;;-2.00;61.50;;;;;;5067534;28;20126;-61
2023/01/10 08:47:01;;;;;;;6.40;4.40;;;-2.00;61.70;;;;;;5057564;28;20031;-59
2023/01/10 09:11:00;;;;;;;4.60;4.13;;;-2.30;60.10;;;;;;5006846;28;20493;-57
2023/01/10 09:13:26;;;;;;;5.55;4.32;;;-2.40;60.30;;;;;;4990137;28;20126;-56
2023/01/10 09:15:52;;;;;;;8.00;5.00;;;-2.40;60.60;;;;;;4998067;28;20079;-56
2023/01/10 09:18:18;;;;;;;8.18;4.72;;;-2.30;61.20;;;;;;4999556;28;20033;-56
2023/01/10 09:20:45;;;;;;;8.63;4.85;;;-2.30;61.50;;;;;;5004942;28;20560;-59
2023/01/10 09:42:16;;;;;;;7.28;4.60;;;-2.10;59.80;;;;;;5094531;27;20424;-60
2023/01/10 09:45:00;;;;;;;6.75;4.43;;;-1.30;58.50;;;;;;5077809;28;20148;-60
2023/01/10 09:47:34;;;;;;;7.85;4.60;;;-1.30;58.60;;;;;;5082228;28;20035;-60
2023/01/10 09:50:14;;;;;;;8.40;5.63;;;-1.40;58.80;;;;;;5071761;28;20032;-57
2023/01/10 09:52:54;;;;;;;5.93;4.60;;;-1.40;58.70;;;;;;5070493;28;21419;-62
2023/01/10 09:55:32;;;;;;;7.15;4.45;;;-1.50;58.50;;;;;;5075307;28;20027;-62
2023/01/10 10:19:33;;;;;;;7.93;4.70;;;-1.60;58.50;;;;;;5064999;27;20479;-55
2023/01/10 10:22:15;;;;;;;10.45;4.57;;;-1.00;58.50;;;;;;5057330;28;20032;-56
2023/01/10 10:25:07;;;;;;;8.65;4.90;;;-1.10;58.70;;;;;;5057195;28;20086;-56
2023/01/10 10:27:48;;;;;;;8.00;4.70;;;-1.20;59.10;;;;;;5060038;28;20041;-53
2023/01/10 10:30:27;;;;;;;6.53;4.95;;;-1.30;59.30;;;;;;5052718;28;20068;-56
2023/01/10 10:33:11;;;;;;;8.18;5.25;;;-1.30;59.30;;;;;;5063461;28;20032;-54
2023/01/10 10:35:54;;;;;;;7.35;4.72;;;-1.40;59.40;;;;;;5053439;28;20028;-54
2023/01/10 10:38:33;;;;;;;10.75;4.55;;;-1.40;59.40;;;;;;5053556;28;20036;-53
2023/01/10 10:41:00;;;;;;;7.95;4.20;;;-1.40;59.30;;;;;;5057853;28;20063;-55
2023/01/10 10:43:32;;;;;;;7.43;4.28;;;-1.40;59.20;;;;;;5063490;28;20040;-60
2023/01/10 10:46:04;;;;;;;;;;;-1.40;59.30;;;;;;5057134;28;20025;-51
2023/01/10 10:48:43;;;;;;;8.40;4.30;;;-1.40;59.20;;;;;;5044889;28;19920;-57
2023/01/10 10:51:17;;;;;;;6.30;4.50;;;-1.40;59.50;;;;;;5046554;28;20044;-59
2023/01/10 10:53:43;;;;;;;7.00;4.30;;;-1.30;59.50;;;;;;5043200;28;20043;-52
2023/01/10 10:56:14;;;;;;;6.90;4.38;;;-1.30;59.60;;;;;;5063099;28;20067;-54
2023/01/10 10:58:43;;;;;;;6.82;5.07;;;-1.30;60.20;;;;;;5056274;28;20036;-54
2023/01/10 11:01:13;;;;;;;7.75;4.30;;;-1.20;59.10;;;;;;5055278;28;20676;-55
2023/01/10 11:03:46;;;;;;;8.80;4.63;;;-1.20;58.90;;;;;;5060320;28;20036;-56
2023/01/10 11:06:13;;;;;;;8.77;4.50;;;-1.20;58.60;;;;;;5069372;28;20068;-55
2023/01/10 11:08:43;;;;;;;6.97;4.13;;;-1.10;58.60;;;;;;5049619;28;20047;-55
2023/01/10 11:11:19;;;;;;;8.55;4.25;;;-1.10;58.60;;;;;;5051883;28;20031;-55
2023/01/10 11:13:47;;;;;;;5.05;3.92;;;-1.00;58.30;;;;;;5053692;28;20043;-56
2023/01/10 11:16:25;;;;;;;5.95;4.10;;;-1.00;58.00;;;;;;5062001;28;20027;-52
2023/01/10 11:19:10;;;;;;;8.18;4.95;;;-0.90;57.80;;;;;;5050119;28;20079;-57
2023/01/10 11:21:39;;;;;;;7.18;4.40;;;-0.80;57.50;;;;;;5047782;28;20470;-58
2023/01/10 11:24:15;;;;;;;6.65;4.22;;;-0.80;57.40;;;;;;5049339;28;20032;-57
2023/01/10 11:26:41;;;;;;;6.20;4.00;;;-0.80;57.50;;;;;;5052671;28;20045;-57
2023/01/10 11:29:20;;;;;;;8.38;4.72;;;-0.70;57.60;;;;;;5046812;28;20694;-53
2023/01/10 11:31:49;;;;;;;7.13;4.15;;;-0.70;57.50;;;;;;5044681;28;20101;-55
2023/01/10 11:34:25;;;;;;;7.03;4.40;;;-0.60;57.40;;;;;;5055389;28;20056;-56
2023/01/10 11:37:03;;;;;;;5.65;4.05;;;-0.60;57.30;;;;;;5057488;28;22386;-57
2023/01/10 11:39:30;;;;;;;6.10;4.30;;;-0.50;56.90;;;;;;5057755;28;20120;-58
2023/01/10 11:41:58;;;;;;;7.38;4.05;;;-0.50;56.50;;;;;;5055760;28;20564;-59
2023/01/10 11:44:25;;;;;;;6.22;4.10;;;-0.40;56.20;;;;;;5054633;28;20029;-60
2023/01/10 11:46:56;;;;;;;7.05;4.40;;;-0.40;57.00;;;;;;5056243;28;20032;-60
2023/01/10 11:49:38;;;;;;;6.10;4.28;;;-0.30;56.00;;;;;;5052540;28;20052;-58
2023/01/10 11:52:19;;;;;;;;;;;-0.30;55.70;;;;;;5041827;28;20029;-58
2023/01/10 11:54:46;;;;;;;7.18;4.18;;;-0.30;55.20;;;;;;5049140;28;20407;-55
2023/01/10 11:58:18;;;;;;;5.90;4.07;;;-0.30;54.90;;;;;;4925156;28;20550;-53
2023/01/10 12:00:47;;;;;;;6.35;3.80;;;-0.20;55.40;;;;;;4937515;28;20038;-53
2023/01/10 12:03:35;;;;;;;5.97;3.83;;;-0.20;55.30;;;;;;4934079;28;20094;-55
2023/01/10 12:06:13;;;;;;;6.28;4.10;;;-0.20;55.10;;;;;;4938460;28;20031;-47
2023/01/10 12:08:43;;;;;;;5.72;3.97;;;-0.20;55.00;;;;;;4939091;28;20043;-54
2023/01/10 12:11:17;;;;;;;4.22;3.80;;;-0.20;54.90;;;;;;4939651;28;20440;-50
2023/01/10 12:13:48;;;;;;;5.47;3.63;;;-0.10;55.10;;;;;;4930935;28;20039;-57
2023/01/10 12:16:17;;;;;;;6.25;4.00;;;0.00;54.80;;;;;;4928349;28;21000;-58
2023/01/10 12:18:43;;;;;;;9.13;5.18;;;-0.10;54.90;;;;;;4939850;28;21168;-57
2023/01/10 12:21:13;;;;;;;9.80;4.97;;;-0.10;56.60;;;;;;4944285;28;20035;-58
2023/01/10 12:23:40;;;;;;;9.85;5.65;;;-0.10;57.60;;;;;;4943048;28;20043;-58
2023/01/10 12:26:08;;;;;;;12.82;5.72;;;-0.10;58.40;;;;;;4937733;28;20370;-59
2023/01/10 12:28:35;;;;;;;8.80;5.75;;;-0.10;59.00;;;;;;4940096;28;20059;-58
2023/01/10 12:31:04;;;;;;;10.45;5.80;;;-0.20;59.20;;;;;;4933166;28;20085;-57
2023/01/10 12:33:34;;;;;;;10.40;5.88;;;-0.20;59.50;;;;;;4937913;28;20032;-57
2023/01/10 12:36:23;;;;;;;11.38;6.40;;;-0.30;60.00;;;;;;4945590;28;20187;-57
2023/01/10 12:39:13;;;;;;;14.77;5.75;;;-0.30;60.30;;;;;;4930141;28;20035;-55
2023/01/10 12:44:32;;;;;;;10.05;5.63;;;-0.40;60.30;;;;;;4930062;28;20034;-56
2023/01/10 12:47:18;;;;;;;7.85;5.97;;;-0.50;60.70;;;;;;4926152;28;20417;-57
2023/01/10 12:50:19;;;;;;;10.93;6.25;;;-0.50;61.10;;;;;;4937196;28;20031;-58
2023/01/10 12:52:56;;;;;;;9.88;6.15;;;-0.50;61.30;;;;;;4931614;28;20600;-57
2023/01/10 12:55:26;;;;;;;15.52;6.07;;;-0.50;61.50;;;;;;4928396;28;20354;-56
2023/01/10 12:58:02;;;;;;;15.60;5.22;;;-0.60;61.60;;;;;;4937314;28;20061;-56
2023/01/10 13:03:23;;;;;;;11.55;5.90;;;-0.60;60.60;;;;;;5034626;27;20526;-54
2023/01/10 13:05:50;;;;;;;9.70;5.55;;;-0.60;61.00;;;;;;5032921;28;20097;-57
2023/01/10 13:08:21;;;;;;;9.25;5.07;;;-0.60;61.10;;;;;;5042041;28;20029;-57
2023/01/10 13:10:51;;;;;;;13.97;5.83;;;-0.60;61.10;;;;;;5026731;28;20071;-58
2023/01/10 13:13:29;;;;;;;12.98;6.60;;;-0.70;61.50;;;;;;5030789;28;20032;-55
2023/01/10 13:16:13;;;;;;;8.68;5.63;;;-0.70;61.40;;;;;;5025485;28;20032;-56
2023/01/10 13:19:00;;;;;;;14.20;5.60;;;-0.70;61.50;;;;;;5023162;28;20844;-50
2023/01/10 13:21:26;;;;;;;10.65;5.35;;;-0.70;61.60;;;;;;5038237;28;20083;-53
2023/01/10 13:23:56;;;;;;;12.43;6.15;;;-0.70;61.30;;;;;;5028545;28;20037;-57
2023/01/10 13:26:21;;;;;;;12.15;5.78;;;-0.70;61.50;;;;;;5038084;28;20041;-56
2023/01/10 13:29:10;;;;;;;10.60;6.18;;;-0.70;61.50;;;;;;5039661;28;20040;-53
2023/01/10 13:31:36;;;;;;;10.38;5.25;;;-0.70;61.50;;;;;;5040783;28;20040;-56
2023/01/10 13:34:11;;;;;;;13.27;5.75;;;-0.70;61.10;;;;;;5034782;28;20032;-58
2023/01/10 13:37:00;;;;;;;11.45;5.72;;;-0.70;61.30;;;;;;5028544;28;20031;-59
2023/01/10 13:39:39;;;;;;;12.98;5.68;;;-0.70;61.10;;;;;;5035392;28;20040;-57
2023/01/10 13:45:02;;;;;;;10.48;5.55;;;-0.70;61.20;;;;;;5036963;28;20394;-57
2023/01/10 13:47:43;;;;;;;14.73;6.15;;;-0.70;61.10;;;;;;5057041;28;20028;-56
2023/01/10 13:50:45;;;;;;;11.63;6.10;;;-0.80;61.20;;;;;;5023777;28;20832;-57
2023/01/10 13:53:13;;;;;;;10.75;5.70;;;-0.70;61.50;;;;;;5033161;28;20025;-56
2023/01/10 13:55:41;;;;;;;9.38;5.10;;;-0.70;62.00;;;;;;5035609;28;20032;-56
2023/01/10 13:58:13;;;;;;;9.25;5.45;;;-0.70;61.90;;;;;;5032181;28;20032;-56
2023/01/10 14:03:53;;;;;;;11.15;5.60;;;-0.70;61.80;;;;;;5026202;28;20087;-53
2023/01/10 14:06:27;;;;;;;14.98;5.32;;;-0.70;61.60;;;;;;5028836;28;20189;-57
2023/01/10 14:08:56;;;;;;;15.35;5.82;;;-0.70;61.20;;;;;;5021831;28;20140;-55
2023/01/10 14:11:28;;;;;;;11.43;5.20;;;-0.70;61.40;;;;;;5027934;28;21423;-57
2023/01/10 14:13:57;;;;;;;9.15;5.05;;;-0.70;61.50;;;;;;5027896;28;20036;-58
2023/01/10 14:16:29;;;;;;;12.93;6.35;;;-0.70;61.60;;;;;;5017254;28;20036;-58
2023/01/10 14:18:55;;;;;;;10.90;5.10;;;-0.70;61.70;;;;;;5016458;28;20148;-58
2023/01/10 14:21:25;;;;;;;15.68;5.85;;;-0.70;61.60;;;;;;5022056;28;20316;-56
2023/01/10 14:23:52;;;;;;;10.77;6.03;;;-0.70;61.50;;;;;;5005474;28;20111;-57
2023/01/10 14:26:27;;;;;;;12.35;6.18;;;-0.70;61.50;;;;;;5021745;28;20058;-55